Bei Facebook empfehlenBei Twitter postenGoogle plusPinterest

Das Wetter im Erzgebirge am 31.03.2017

Wetter und Klima am 31.03.2017 Holzhau im Erzgebirge (630m ü.NN)
Letzte gemessene Temperatur und Uhrzeit der Messung23:45:00 Uhr8.30 °C
Temperatur (Maximum / Höchstwert) und Uhrzeit der Messung17:00:00 Uhr20.30 °C
Temperatur (Minimum / Tiefstwert) und Uhrzeit der Messung04:45:002.60 °C
Errechneter Absolutwert der Temperaturschwankungen zwischen Tmin und Tmax des Tages17.70 K
Errechnete Tagesmitteltemperatur10.92292 °C
Gesamt - Niederschlag des Tages (in flüssiger Form)0.00 Liter / m²
Luftdruck (Maximum / Höchstwert) und Zeitpunkt der Messung00:45:00 Uhr1021.00 hPa
Luftdruck (Minimum / Tiefstwert) und Zeitpunkt der Messung23:45:00 Uhr1012.50 hPa
Errechneter Absolutwert der Luftdruckschwankungen des Tages8.50 hPa
Höchste gemessene Windgeschwindigkeit und Uhrzeit der Messung12:00:00 Uhr21.60 km/h
Errechnete Windhäufigkeit in Relation zu den Messwerten des Tages36.45833 %
Niedrigste Windkühle (Windchill) und Zeitpunkt der Messung04:45:00 Uhr2.60 °C
Taupunkt (Maximum / Höchstwert) und Uhrzeit der Messung15:15:00 Uhr9.00 °C
Taupunkt (Minimum / Tiefstwert) und Uhrzeit der Messung04:30:001.30 °C
Anzahl der automatisch eingelesenen Messwerte 96

Detaillierte Wetter- und Klima- Messwerte für den 31.03.2017 in Holzhau im Erzgebirge (630m ü.NN)
ZeitTemperaturLuftdruckRel. LuftfeuchteWindWindrichtungWindchillTaupunktNiederschlag l/m²
23:45:008.30 °C1012.50 hPa83.00 %1.44 km/hSO8.30 °C5.60 °C 
23:30:008.30 °C1012.60 hPa84.00 %4.32 km/hNO8.30 °C5.80 °C 
23:15:007.80 °C1012.70 hPa84.00 %5.30 °C 
23:00:007.60 °C1012.90 hPa84.00 %5.10 °C 
22:45:007.60 °C1012.80 hPa83.00 %4.90 °C 
22:30:007.80 °C1012.90 hPa83.00 %5.10 °C 
22:15:007.80 °C1013.10 hPa82.00 %4.90 °C 
22:00:008.10 °C1013.00 hPa80.00 %4.90 °C 
21:45:008.70 °C1013.20 hPa79.00 %5.30 °C 
21:30:008.90 °C1013.20 hPa80.00 %5.60 °C 
21:15:008.90 °C1013.30 hPa77.00 %5.10 °C 
21:00:009.20 °C1013.30 hPa75.00 %5.00 °C 
20:45:009.70 °C1013.30 hPa73.00 %5.10 °C 
20:30:0010.20 °C1013.30 hPa72.00 %5.40 °C 
20:15:0010.90 °C1013.20 hPa70.00 %5.70 °C 
20:00:0011.60 °C1013.20 hPa67.00 %5.70 °C 
19:45:0012.90 °C1013.40 hPa64.00 %6.30 °C 
19:30:0014.20 °C1013.40 hPa61.00 %6.80 °C 
19:15:0015.20 °C1013.30 hPa58.00 %7.00 °C 
19:00:0016.20 °C1013.40 hPa55.00 %7.20 °C 
18:45:0017.10 °C1013.50 hPa53.00 %7.50 °C 
18:30:0017.70 °C1013.40 hPa51.00 %7.40 °C 
18:15:0018.50 °C1013.50 hPa49.00 %7.60 °C 
18:00:0019.00 °C1013.80 hPa48.00 %4.68 km/hSSO19.00 °C7.80 °C 
17:45:0019.20 °C1013.90 hPa48.00 %7.90 °C 
17:30:0019.50 °C1014.00 hPa46.00 %1.80 km/hSSO19.50 °C7.60 °C 
17:15:0019.90 °C1014.20 hPa46.00 %7.90 °C 
17:00:0020.30 °C1014.30 hPa46.00 %3.60 km/hOSO20.30 °C8.30 °C 
16:45:0019.90 °C1014.40 hPa47.00 %2.16 km/hWSW19.90 °C8.30 °C 
16:30:0019.90 °C1014.70 hPa47.00 %6.48 km/hSW20.80 °C8.30 °C 
16:15:0019.90 °C1014.90 hPa49.00 %8.90 °C 
16:00:0019.70 °C1015.00 hPa48.00 %1.80 km/hSSW19.70 °C8.40 °C 
15:45:0019.60 °C1015.10 hPa49.00 %8.28 km/hSSO20.30 °C8.60 °C 
15:30:0019.80 °C1015.40 hPa49.00 %5.76 km/hS20.80 °C8.80 °C 
15:15:0019.70 °C1015.40 hPa50.00 %1.44 km/hSSO19.70 °C9.00 °C 
15:00:0019.30 °C1015.40 hPa50.00 %9.36 km/hSW19.80 °C8.60 °C 
14:45:0019.30 °C1015.70 hPa50.00 %11.52 km/hSSO19.60 °C8.60 °C 
14:30:0018.90 °C1015.80 hPa51.00 %11.52 km/hSO19.10 °C8.60 °C 
14:15:0018.60 °C1015.90 hPa51.00 %0.36 km/hSO18.60 °C8.30 °C 
14:00:0018.40 °C1016.10 hPa51.00 %8.10 °C 
13:45:0018.40 °C1016.30 hPa51.00 %10.44 km/hS18.60 °C8.10 °C 
13:30:0018.10 °C1016.40 hPa51.00 %7.80 °C 
13:15:0017.80 °C1016.50 hPa52.00 %14.04 km/hSSW17.60 °C7.80 °C 
13:00:0017.40 °C1016.60 hPa53.00 %5.40 km/hS18.10 °C7.70 °C 
12:45:0017.40 °C1016.80 hPa53.00 %8.64 km/hW17.60 °C7.70 °C 
12:30:0017.30 °C1016.90 hPa53.00 %6.84 km/hWSW17.70 °C7.60 °C 
12:15:0017.40 °C1017.20 hPa53.00 %1.44 km/hWSW17.40 °C7.70 °C 
12:00:0017.10 °C1017.10 hPa54.00 %21.60 km/hSSW16.20 °C7.70 °C 
11:45:0016.90 °C1017.20 hPa55.00 %7.80 °C 
11:30:0016.60 °C1017.30 hPa55.00 %12.60 km/hSW16.30 °C7.50 °C 
11:15:0016.90 °C1017.10 hPa56.00 %6.12 km/hS17.40 °C8.10 °C 
11:00:0016.80 °C1017.30 hPa57.00 %8.20 °C 
10:45:0016.10 °C1017.40 hPa60.00 %8.30 °C 
10:30:0015.70 °C1017.10 hPa62.00 %5.76 km/hSSO16.10 °C8.40 °C 
10:15:0015.30 °C1017.00 hPa64.00 %8.64 km/hS15.10 °C8.50 °C 
10:00:0014.70 °C1016.90 hPa67.00 %8.60 °C 
09:45:0014.10 °C1017.00 hPa71.00 %8.90 °C 
09:30:0013.10 °C1017.00 hPa76.00 %1.80 km/hS13.10 °C9.00 °C 
09:15:0011.80 °C1017.00 hPa82.00 %1.80 km/hSO11.80 °C8.80 °C 
09:00:009.80 °C1017.20 hPa91.00 %0.36 km/hSO9.80 °C8.40 °C 
08:45:008.50 °C1017.30 hPa93.00 %7.40 °C 
08:30:007.40 °C1017.50 hPa94.00 %6.50 °C 
08:15:006.10 °C1017.60 hPa94.00 %5.20 °C 
08:00:004.20 °C1017.80 hPa93.00 %3.20 °C 
07:45:003.70 °C1017.90 hPa92.00 %2.50 °C 
07:30:003.80 °C1017.70 hPa92.00 %2.60 °C 
07:15:003.80 °C1017.60 hPa92.00 %2.60 °C 
07:00:003.60 °C1017.60 hPa92.00 %2.40 °C 
06:45:003.50 °C1017.70 hPa92.00 %2.30 °C 
06:30:003.50 °C1017.90 hPa92.00 %2.30 °C 
06:15:003.80 °C1017.90 hPa92.00 %2.52 km/hSO3.80 °C2.60 °C 
06:00:003.90 °C1018.00 hPa92.00 %2.52 km/hO3.90 °C2.70 °C 
05:45:004.00 °C1018.20 hPa93.00 %3.00 °C 
05:30:004.10 °C1018.40 hPa93.00 %3.10 °C 
05:15:003.80 °C1018.50 hPa93.00 %2.80 °C 
05:00:003.30 °C1018.70 hPa93.00 %2.30 °C 
04:45:002.60 °C1018.90 hPa92.00 %1.08 km/hSO2.60 °C1.40 °C 
04:30:002.60 °C1019.20 hPa91.00 %1.30 °C 
04:15:002.90 °C1019.30 hPa91.00 %1.60 °C 
04:00:003.50 °C1019.40 hPa91.00 %2.20 °C 
03:45:003.90 °C1019.50 hPa92.00 %2.70 °C 
03:30:004.40 °C1019.60 hPa92.00 %0.72 km/hSO4.40 °C3.20 °C 
03:15:004.10 °C1019.70 hPa92.00 %2.90 °C 
03:00:003.80 °C1019.80 hPa92.00 %2.60 °C 
02:45:003.80 °C1019.90 hPa91.00 %2.50 °C 
02:30:003.80 °C1020.20 hPa91.00 %2.50 °C 
02:15:003.90 °C1020.30 hPa92.00 %2.70 °C 
02:00:003.30 °C1020.40 hPa90.00 %1.08 km/hSO3.30 °C1.80 °C 
01:45:003.30 °C1020.40 hPa90.00 %1.80 °C 
01:30:003.40 °C1020.60 hPa90.00 %1.90 °C 
01:15:003.50 °C1020.80 hPa89.00 %1.90 °C 
01:00:003.60 °C1020.80 hPa89.00 %2.00 °C 
00:45:004.10 °C1021.00 hPa88.00 %2.30 °C 
00:30:004.60 °C1021.00 hPa89.00 %2.90 °C 
00:15:004.90 °C1021.00 hPa89.00 %2.52 km/hSO4.90 °C3.20 °C 
00:00:004.80 °C1021.00 hPa89.00 %3.10 °C 

Permanenter Link zu dieser Seite: Wetter im Erzgebirge am 31.03.2017
Performance-Info: Die Erstellung der Seite / Statistik(en) / Tabelle(n) erforderte 5 Datenbankserver-Abfrage(n) und dauerte 102 Millisekunden. (Dieser Messwert ist von der Gesamt-Auslastung des Servers abhängig.)
Erzgebirge - Wetter | Erzgebirge - Wetter (Mobilgeräte) | Komplette Klimadatenbank